Nashville, Georgia
Current Conditions -  °F | °C
As of 3:58 AM on Saturday 22 Nov 2014 (Local Time) from KVAD Reporting Station
Clear Clear  
Wind Chill: 42°   Ceiling: Unl
Heat Index: 46°   Visibility: 10mi
Dew Point: 42°   Wind: 8mph
Humidity: 84%   Direction: 50°NE
Pressure: 30.34"   Gusts: NA
Location:  31.21°N, 83.25°W
Report Text: KVAD 220858Z AUTO 05007KT 10SM CLR 08/06 A3034 RMK AO2 SLP276 T00800055 56003 $
Loading
Personal Weather Stations






























Interactive Weather Map New forecast layout! Learn more

10-Day Weather Forecast

Advertisements
Track Severe Weather on mobile